createdAt,value
2023-02-23T00:01:22.563Z,1.29
2023-02-23T00:03:50.293Z,1.29
2023-02-23T00:06:18.602Z,1.28
2023-02-23T00:08:47.917Z,1.26
2023-02-23T00:11:16.433Z,1.26
2023-02-23T00:13:46.325Z,1.24
2023-02-23T00:16:18.152Z,1.22
2023-02-23T00:18:48.568Z,1.20
2023-02-23T00:21:17.008Z,1.22
2023-02-23T00:23:49.419Z,1.24
2023-02-23T00:26:16.628Z,1.20
2023-02-23T00:28:43.640Z,1.19
2023-02-23T00:31:11.707Z,1.21
2023-02-23T00:33:39.297Z,1.17
2023-02-23T00:36:08.786Z,1.01
2023-02-23T00:38:36.463Z,1.06
2023-02-23T00:41:08.135Z,1.13
2023-02-23T00:43:37.493Z,1.08
2023-02-23T00:46:08.146Z,1.05
2023-02-23T00:48:35.626Z,1.04
2023-02-23T00:51:04.559Z,1.01
2023-02-23T00:53:31.569Z,1.02
2023-02-23T00:55:59.236Z,0.99
2023-02-23T00:58:27.181Z,0.93
2023-02-23T01:00:53.899Z,0.97
2023-02-23T01:03:20.450Z,0.98
2023-02-23T01:05:49.947Z,1.00
2023-02-23T01:08:17.527Z,1.00
2023-02-23T01:10:52.408Z,0.97
2023-02-23T01:13:20.576Z,1.04
2023-02-23T01:15:52.178Z,0.96
2023-02-23T01:18:20.640Z,0.97
2023-02-23T01:20:47.285Z,0.94
2023-02-23T01:23:15.437Z,0.95
2023-02-23T02:07:28.990Z,0.88
2023-02-23T02:10:13.103Z,0.80
2023-02-23T02:12:41.438Z,0.82
2023-02-23T02:15:16.926Z,0.82
2023-02-23T02:17:58.242Z,0.84
2023-02-23T02:20:33.383Z,0.83
2023-02-23T02:23:08.423Z,0.75
2023-02-23T02:25:34.928Z,0.86
2023-02-23T02:28:35.785Z,0.79
2023-02-23T02:31:15.646Z,0.70
2023-02-23T02:33:53.086Z,0.72
2023-02-23T02:36:37.898Z,0.76
2023-02-23T02:39:34.706Z,0.73
2023-02-23T02:42:08.858Z,0.64
2023-02-23T02:44:44.475Z,0.74
2023-02-23T02:47:36.201Z,0.69
2023-02-23T02:50:15.666Z,0.65
2023-02-23T02:52:55.782Z,0.66
2023-02-23T02:55:26.286Z,0.65
2023-02-23T02:57:58.366Z,0.69
2023-02-23T03:01:10.086Z,0.67
2023-02-23T03:04:04.637Z,0.64
2023-02-23T03:06:57.306Z,0.69
2023-02-23T03:10:02.635Z,0.64
2023-02-23T03:13:04.765Z,0.62
2023-02-23T03:16:15.281Z,0.60
2023-02-23T03:19:30.486Z,0.59
2023-02-23T03:22:30.747Z,0.53
2023-02-23T03:25:54.116Z,0.49
2023-02-23T03:28:45.628Z,0.57
2023-02-23T03:31:41.693Z,0.57
2023-02-23T03:34:36.111Z,0.52
2023-02-23T03:37:37.004Z,0.48
2023-02-23T03:40:37.716Z,0.45
2023-02-23T03:43:31.966Z,0.40
2023-02-23T03:46:20.690Z,0.41
2023-02-23T04:41:13.855Z,0.14
2023-02-23T05:40:25.917Z,-0.11
2023-02-23T05:42:58.132Z,-0.13
2023-02-23T05:45:24.584Z,-0.12
2023-02-23T05:47:52.523Z,-0.24
2023-02-23T05:50:19.085Z,-0.25
2023-02-23T05:52:45.525Z,-0.27
2023-02-23T05:55:12.462Z,-0.28
2023-02-23T05:57:40.946Z,-0.33
2023-02-23T06:00:08.557Z,-0.29
2023-02-23T06:02:36.500Z,-0.27
2023-02-23T06:05:03.413Z,-0.36
2023-02-23T06:07:29.879Z,-0.46
2023-02-23T06:09:56.327Z,-0.36
2023-02-23T06:12:23.796Z,-0.32
2023-02-23T06:14:50.831Z,-0.38
2023-02-23T06:17:17.431Z,-0.42
2023-02-23T06:19:43.961Z,-0.44
2023-02-23T06:22:10.397Z,-0.37
2023-02-23T06:24:37.108Z,-0.47
2023-02-23T06:27:04.224Z,-0.46
2023-02-23T06:29:30.689Z,-0.39
2023-02-23T06:31:59.704Z,-0.36
2023-02-23T06:34:27.127Z,-0.34
2023-02-23T06:36:53.596Z,-0.37
2023-02-23T06:39:20.088Z,-0.23
2023-02-23T06:41:46.577Z,-0.19
2023-02-23T06:44:13.134Z,-0.20
2023-02-23T06:46:39.699Z,-0.17
2023-02-23T06:49:06.208Z,-0.11
2023-02-23T06:51:32.889Z,-0.09
2023-02-23T06:53:59.306Z,-0.09
2023-02-23T06:56:25.827Z,-0.11
2023-02-23T06:58:52.295Z,-0.05
2023-02-23T07:01:19.656Z,0.02
2023-02-23T07:03:46.311Z,-0.02
2023-02-23T07:06:12.943Z,0.05
2023-02-23T07:08:39.623Z,0.11
2023-02-23T07:11:08.394Z,0.10
2023-02-23T07:13:35.063Z,0.08
2023-02-23T07:16:01.780Z,0.16
2023-02-23T07:18:28.276Z,0.15
2023-02-23T07:20:54.784Z,-0.27
2023-02-23T07:23:22.497Z,-0.31
2023-02-23T07:25:54.219Z,-0.10
2023-02-23T07:28:21.398Z,-0.19
2023-02-23T07:30:49.905Z,-0.03
2023-02-23T07:33:16.883Z,-0.14
2023-02-23T07:35:45.171Z,-0.11
2023-02-23T07:38:13.491Z,-0.01
2023-02-23T07:40:39.958Z,-0.13
2023-02-23T07:43:07.504Z,-0.23
2023-02-23T07:45:34.020Z,-0.05
2023-02-23T08:06:47.838Z,0.77
2023-02-23T08:09:14.541Z,0.91
2023-02-23T08:11:41.060Z,1.03
2023-02-23T08:19:30.785Z,0.90
2023-02-23T08:21:57.379Z,0.97
2023-02-23T08:24:25.046Z,1.31
2023-02-23T08:26:51.598Z,1.53
2023-02-23T08:29:18.140Z,1.54
2023-02-23T08:31:44.965Z,1.69
2023-02-23T08:34:11.637Z,1.59
2023-02-23T08:36:38.838Z,1.57
2023-02-23T09:08:41.018Z,2.02
2023-02-23T09:11:07.831Z,1.95
2023-02-23T09:13:34.406Z,1.99
2023-02-23T09:16:00.976Z,1.82
2023-02-23T09:18:29.444Z,1.65
2023-02-23T09:20:56.280Z,1.90
2023-02-23T09:23:24.151Z,1.67
2023-02-23T09:25:50.821Z,1.77
2023-02-23T09:28:19.388Z,1.83
2023-02-23T09:30:47.325Z,1.92
2023-02-23T09:33:14.104Z,2.01
2023-02-23T09:35:41.559Z,2.06
2023-02-23T09:38:08.598Z,2.21
2023-02-23T09:40:55.571Z,2.67
2023-02-23T09:43:37.189Z,2.96
2023-02-23T09:46:21.632Z,3.21
2023-02-23T09:48:48.358Z,3.48
2023-02-23T09:51:21.817Z,3.49
2023-02-23T10:07:26.095Z,5.80
2023-02-23T10:10:30.641Z,6.14
2023-02-23T10:13:20.031Z,6.17
2023-02-23T10:15:49.777Z,6.16
2023-02-23T10:18:56.767Z,6.98
2023-02-23T10:21:41.993Z,6.99
2023-02-23T10:24:19.460Z,7.27
2023-02-23T10:26:51.297Z,7.27
2023-02-23T10:29:41.305Z,7.43
2023-02-23T10:32:39.258Z,7.31
2023-02-23T10:35:14.032Z,7.62
2023-02-23T10:37:40.768Z,7.30
2023-02-23T10:40:14.061Z,7.63
2023-02-23T10:42:40.583Z,7.80
2023-02-23T10:45:18.694Z,7.97
2023-02-23T10:47:46.365Z,7.95
2023-02-23T10:50:14.409Z,8.22
2023-02-23T10:52:45.463Z,7.93
2023-02-23T10:55:27.563Z,7.88
2023-02-23T10:58:05.073Z,8.22
2023-02-23T11:00:34.413Z,7.87
2023-02-23T11:03:03.416Z,7.59
2023-02-23T11:05:33.714Z,7.61
2023-02-23T11:08:21.830Z,8.01
2023-02-23T11:11:01.193Z,7.88
2023-02-23T11:13:33.452Z,7.74
2023-02-23T11:16:11.215Z,7.97
2023-02-23T11:18:39.370Z,7.76
2023-02-23T11:21:11.198Z,7.30
2023-02-23T11:23:40.340Z,7.73
2023-02-23T11:26:23.024Z,8.18
2023-02-23T11:28:56.016Z,7.90
2023-02-23T11:31:30.023Z,7.90
2023-02-23T11:33:58.472Z,7.74
2023-02-23T11:36:34.247Z,8.11
2023-02-23T11:39:14.251Z,8.06
2023-02-23T11:41:40.766Z,7.81
2023-02-23T11:44:07.479Z,7.53
2023-02-23T11:46:37.818Z,7.38
2023-02-23T11:49:12.716Z,7.37
2023-02-23T11:51:46.123Z,7.46
2023-02-23T11:54:33.790Z,6.83
2023-02-23T11:57:02.685Z,7.11
2023-02-23T11:59:33.604Z,7.07
2023-02-23T12:02:30.222Z,7.12
2023-02-23T12:05:03.235Z,7.80
2023-02-23T12:07:38.771Z,7.79
2023-02-23T12:10:15.123Z,7.83
2023-02-23T12:12:53.085Z,8.16
2023-02-23T12:15:42.698Z,7.58
2023-02-23T12:18:23.727Z,7.87
2023-02-23T12:20:54.188Z,8.06
2023-02-23T12:23:26.497Z,8.28
2023-02-23T12:26:12.963Z,7.40
2023-02-23T12:28:47.940Z,7.63
2023-02-23T12:31:31.707Z,7.25
2023-02-23T12:34:05.182Z,7.58
2023-02-23T12:36:43.781Z,7.79
2023-02-23T12:39:27.307Z,7.89
2023-02-23T12:42:09.398Z,8.02
2023-02-23T12:44:49.381Z,7.80
2023-02-23T12:47:33.618Z,7.71
2023-02-23T12:50:13.139Z,7.31
2023-02-23T12:53:18.283Z,7.37
2023-02-23T12:56:21.577Z,7.22
2023-02-23T12:58:59.528Z,6.91
2023-02-23T13:01:39.255Z,7.13
2023-02-23T13:04:36.576Z,7.00
2023-02-23T13:07:20.576Z,7.00
2023-02-23T13:10:02.410Z,7.36
2023-02-23T13:12:49.682Z,7.42
2023-02-23T13:15:27.116Z,7.75
2023-02-23T13:18:11.608Z,7.70
2023-02-23T13:20:49.083Z,7.59
2023-02-23T13:23:40.611Z,7.02
2023-02-23T13:26:44.433Z,7.00
2023-02-23T13:29:49.521Z,7.24
2023-02-23T13:32:22.742Z,7.02
2023-02-23T13:35:07.554Z,6.66
2023-02-23T13:37:45.593Z,6.47
2023-02-23T13:40:39.341Z,6.52
2023-02-23T13:43:30.604Z,6.50
2023-02-23T13:46:22.148Z,6.65
2023-02-23T13:49:02.073Z,6.42
2023-02-23T13:51:44.191Z,6.41
2023-02-23T13:54:13.661Z,6.31
2023-02-23T13:56:47.662Z,6.26
2023-02-23T13:59:20.840Z,6.24
2023-02-23T14:01:50.701Z,6.34
2023-02-23T14:04:34.290Z,6.32
2023-02-23T14:07:09.914Z,6.42
2023-02-23T14:09:58.444Z,6.36
2023-02-23T14:12:32.998Z,6.27
2023-02-23T14:15:28.369Z,6.28
2023-02-23T14:18:16.770Z,6.28
2023-02-23T14:20:54.731Z,6.07
2023-02-23T14:34:13.310Z,5.99
2023-02-23T14:36:44.526Z,5.87
2023-02-23T14:39:26.579Z,5.80
2023-02-23T14:41:59.247Z,5.87
2023-02-23T14:47:14.009Z,5.80
2023-02-23T14:49:54.662Z,5.81
2023-02-23T14:52:28.402Z,5.82
2023-02-23T14:55:13.073Z,5.66
2023-02-23T15:00:32.368Z,5.46
2023-02-23T15:03:05.044Z,5.50
2023-02-23T15:05:36.461Z,5.55
2023-02-23T15:08:08.067Z,5.56
2023-02-23T15:10:39.322Z,5.61
2023-02-23T15:13:31.727Z,5.52
2023-02-23T15:16:03.828Z,5.45
2023-02-23T15:18:35.884Z,5.39
2023-02-23T15:21:12.135Z,5.36
2023-02-23T15:23:38.971Z,5.41
2023-02-23T16:07:22.547Z,5.13
2023-02-23T16:09:49.004Z,5.20
2023-02-23T16:12:36.905Z,5.27
2023-02-23T16:15:13.768Z,5.28
2023-02-23T16:17:45.252Z,5.25
2023-02-23T18:49:40.952Z,4.88
2023-02-23T18:52:09.184Z,4.73
2023-02-23T18:54:37.525Z,4.71
2023-02-23T18:57:05.656Z,4.68
2023-02-23T18:59:33.455Z,4.69
2023-02-23T19:01:59.918Z,4.67
2023-02-23T19:04:26.483Z,4.62
2023-02-23T19:06:53.007Z,4.66
2023-02-23T19:09:21.349Z,4.68
2023-02-23T19:11:51.222Z,4.68
2023-02-23T19:14:22.073Z,4.65
2023-02-23T19:16:50.683Z,4.63
2023-02-23T19:19:17.204Z,4.66
2023-02-23T19:21:43.744Z,4.72
2023-02-23T19:24:10.329Z,4.59
2023-02-23T19:26:38.067Z,4.63
2023-02-23T19:29:05.204Z,4.64
2023-02-23T19:31:32.054Z,4.62
2023-02-23T19:33:59.656Z,4.68
2023-02-23T19:36:30.774Z,4.58
2023-02-23T19:39:05.865Z,4.47
2023-02-23T19:41:34.325Z,4.55
2023-02-23T19:44:01.336Z,4.56
2023-02-23T19:46:28.582Z,4.47
2023-02-23T19:48:55.889Z,4.53
2023-02-23T19:51:23.554Z,4.57
2023-02-23T19:53:53.002Z,4.53
2023-02-23T19:56:19.442Z,4.52
2023-02-23T19:58:46.851Z,4.48
2023-02-23T20:01:16.899Z,4.44
2023-02-23T20:03:44.908Z,4.47
2023-02-23T20:06:13.965Z,4.47
2023-02-23T20:08:41.814Z,4.46
2023-02-23T20:11:09.021Z,4.41
2023-02-23T20:13:38.576Z,4.37
2023-02-23T20:16:09.035Z,4.36
2023-02-23T20:18:38.508Z,4.14
2023-02-23T20:21:17.130Z,3.98
2023-02-23T20:23:45.160Z,3.97
2023-02-23T20:26:19.504Z,3.85
2023-02-23T20:28:46.431Z,3.84
2023-02-23T20:31:21.066Z,3.80
2023-02-23T20:33:51.712Z,3.83
2023-02-23T20:36:20.481Z,3.89
2023-02-23T20:38:47.097Z,3.85
2023-02-23T20:41:13.638Z,3.77
2023-02-23T20:43:40.426Z,3.77
2023-02-23T20:46:07.222Z,3.68
2023-02-23T20:48:35.359Z,3.61
2023-02-23T20:51:02.517Z,3.70
2023-02-23T20:53:29.440Z,3.72
2023-02-23T20:55:56.134Z,3.75
2023-02-23T20:58:25.154Z,3.68
2023-02-23T21:00:57.064Z,3.58
2023-02-23T21:03:25.076Z,3.62
2023-02-23T21:05:51.968Z,3.66
2023-02-23T21:08:19.078Z,3.60
2023-02-23T21:10:45.895Z,3.67
2023-02-23T21:13:13.574Z,3.70
2023-02-23T21:15:41.123Z,3.69
2023-02-23T21:18:08.317Z,3.71
2023-02-23T21:20:35.382Z,3.72
2023-02-23T21:23:04.122Z,3.63
2023-02-23T21:25:30.822Z,3.64
2023-02-23T21:27:57.475Z,3.60
2023-02-23T21:30:28.535Z,3.59
2023-02-23T21:32:56.714Z,3.61
2023-02-23T22:16:15.560Z,3.45
2023-02-23T22:18:42.520Z,3.43
2023-02-23T22:21:11.750Z,3.34
2023-02-23T22:23:40.062Z,3.42
2023-02-23T22:26:07.274Z,3.44
2023-02-23T22:28:34.447Z,3.41
2023-02-23T22:31:06.984Z,3.35
2023-02-23T22:33:35.116Z,3.33
2023-02-23T23:25:34.013Z,3.11
2023-02-23T23:28:00.444Z,3.09
2023-02-23T23:30:29.271Z,3.09
2023-02-23T23:32:57.545Z,3.09
2023-02-23T23:35:25.930Z,3.07
2023-02-23T23:37:52.467Z,3.00
2023-02-23T23:40:24.754Z,3.02
2023-02-23T23:42:51.703Z,3.04
2023-02-23T23:45:24.068Z,3.03
2023-02-23T23:47:50.858Z,3.07
2023-02-23T23:50:17.644Z,2.99
2023-02-23T23:52:45.250Z,2.95
2023-02-23T23:55:14.800Z,3.06
2023-02-23T23:57:42.193Z,3.01
